createdAt,value
2022-09-04T00:00:09.184Z,612.00
2022-09-04T00:05:08.417Z,624.00
2022-09-04T00:10:07.615Z,617.00
2022-09-04T00:15:07.008Z,617.00
2022-09-04T00:20:06.974Z,616.00
2022-09-04T00:25:05.151Z,608.00
2022-09-04T00:30:04.307Z,606.00
2022-09-04T00:35:04.470Z,608.00
2022-09-04T00:40:02.709Z,613.00
2022-09-04T00:45:01.852Z,613.00
2022-09-04T00:50:00.997Z,608.00
2022-09-04T00:55:01.149Z,602.00
2022-09-04T01:00:01.305Z,617.00
2022-09-04T01:04:58.452Z,619.00
2022-09-04T01:09:57.610Z,604.00
2022-09-04T01:14:57.779Z,615.00
2022-09-04T01:19:55.939Z,616.00
2022-09-04T01:24:55.080Z,607.00
2022-09-04T01:29:54.237Z,609.00
2022-09-04T01:34:54.382Z,609.00
2022-09-04T01:39:52.612Z,593.00
2022-09-04T01:44:52.782Z,593.00
2022-09-04T01:49:51.948Z,604.00
2022-09-04T01:54:50.113Z,600.00
2022-09-04T01:59:53.459Z,607.00
2022-09-04T02:04:50.486Z,616.00
2022-09-04T02:09:48.644Z,614.00
2022-09-04T02:14:46.782Z,601.00
2022-09-04T02:19:47.002Z,609.00
2022-09-04T02:24:45.325Z,603.00
2022-09-04T02:29:46.481Z,618.00
2022-09-04T02:34:44.629Z,620.00
2022-09-04T02:39:43.020Z,615.00
2022-09-04T02:44:42.180Z,617.00
2022-09-04T02:49:42.349Z,603.00
2022-09-04T02:54:40.493Z,620.00
2022-09-04T02:59:39.647Z,633.00
2022-09-04T03:04:40.821Z,629.00
2022-09-04T03:09:38.000Z,623.00
2022-09-04T03:14:39.149Z,613.00
2022-09-04T03:19:37.307Z,612.00
2022-09-04T03:24:36.431Z,607.00
2022-09-04T03:29:34.625Z,603.00
2022-09-04T03:34:33.755Z,605.00
2022-09-04T03:39:32.912Z,600.00
2022-09-04T03:44:32.274Z,612.00
2022-09-04T03:49:31.393Z,614.00
2022-09-04T03:54:30.529Z,624.00
2022-09-04T03:59:30.696Z,619.00
2022-09-04T04:04:31.843Z,615.00
2022-09-04T04:09:29.212Z,607.00
2022-09-04T04:14:28.328Z,616.00
2022-09-04T04:19:28.456Z,607.00
2022-09-04T04:24:25.782Z,625.00
2022-09-04T04:29:24.980Z,599.00
2022-09-04T04:34:23.189Z,592.00
2022-09-04T04:39:25.825Z,598.00
2022-09-04T04:44:23.635Z,598.00
2022-09-04T04:49:21.778Z,586.00
2022-09-04T04:54:21.923Z,593.00
2022-09-04T04:59:21.142Z,589.00
2022-09-04T05:04:19.318Z,593.00
2022-09-04T05:09:19.509Z,589.00
2022-09-04T05:14:17.662Z,581.00
2022-09-04T05:19:16.835Z,593.00
2022-09-04T05:24:16.030Z,596.00
2022-09-04T05:29:15.211Z,587.00
2022-09-04T05:34:14.403Z,588.00
2022-09-04T05:39:14.571Z,586.00
2022-09-04T05:44:12.778Z,586.00
2022-09-04T05:49:11.950Z,594.00
2022-09-04T05:54:11.135Z,581.00
2022-09-04T05:59:11.289Z,576.00
2022-09-04T06:04:08.488Z,580.00
2022-09-04T06:09:08.655Z,596.00
2022-09-04T06:14:06.807Z,596.00
2022-09-04T06:19:08.001Z,591.00
2022-09-04T06:24:06.217Z,591.00
2022-09-04T06:29:05.924Z,585.00
2022-09-04T06:34:04.639Z,586.00
2022-09-04T06:39:03.803Z,588.00
2022-09-04T06:44:02.933Z,596.00
2022-09-04T06:49:04.333Z,576.00
2022-09-04T06:54:01.480Z,580.00
2022-09-04T06:59:01.455Z,582.00
2022-09-04T07:03:59.805Z,588.00
2022-09-04T07:08:59.994Z,543.00
2022-09-04T07:13:58.174Z,562.00
2022-09-04T07:18:59.387Z,559.00
2022-09-04T07:24:00.844Z,562.00
2022-09-04T07:28:57.842Z,560.00
2022-09-04T07:33:54.975Z,551.00
2022-09-04T07:38:55.155Z,576.00
2022-09-04T07:43:55.085Z,580.00
2022-09-04T07:48:53.564Z,585.00
2022-09-04T07:53:52.717Z,586.00
2022-09-04T07:58:52.860Z,574.00
2022-09-04T08:03:54.662Z,577.00
2022-09-04T08:08:49.195Z,622.00
2022-09-04T08:13:47.361Z,559.00
2022-09-04T08:18:48.507Z,604.00
2022-09-04T08:23:46.638Z,613.00
2022-09-04T08:28:46.583Z,617.00
2022-09-04T08:33:45.330Z,610.00
2022-09-04T08:38:45.626Z,610.00
2022-09-04T08:43:43.914Z,559.00
2022-09-04T08:48:43.197Z,554.00
2022-09-04T08:53:42.580Z,564.00
2022-09-04T08:58:47.513Z,558.00
2022-09-04T09:03:40.833Z,567.00
2022-09-04T09:08:40.139Z,569.00
2022-09-04T09:13:39.456Z,578.00
2022-09-04T09:18:40.480Z,607.00
2022-09-04T09:23:38.044Z,559.00
2022-09-04T09:28:38.171Z,572.00
2022-09-04T09:33:38.313Z,553.00
2022-09-04T09:38:35.631Z,558.00
2022-09-04T09:43:35.951Z,562.00
2022-09-04T09:48:33.289Z,561.00
2022-09-04T09:53:33.434Z,570.00
2022-09-04T09:58:33.547Z,559.00
2022-09-04T10:03:32.867Z,546.00
2022-09-04T10:08:35.882Z,556.00
2022-09-04T10:13:32.702Z,560.00
2022-09-04T10:18:29.567Z,551.00
2022-09-04T10:23:29.889Z,579.00
2022-09-04T10:28:28.199Z,545.00
2022-09-04T10:33:27.700Z,558.00
2022-09-04T10:38:26.804Z,568.00
2022-09-04T10:43:28.111Z,570.00
2022-09-04T10:48:28.633Z,568.00
2022-09-04T10:53:25.641Z,553.00
2022-09-04T10:58:24.735Z,548.00
2022-09-04T11:03:24.281Z,538.00
2022-09-04T11:08:24.282Z,569.00
2022-09-04T11:13:22.592Z,559.00
2022-09-04T11:18:22.899Z,554.00
2022-09-04T11:23:21.197Z,541.00
2022-09-04T11:28:20.494Z,546.00
2022-09-04T11:33:18.810Z,546.00
2022-09-04T11:38:18.084Z,559.00
2022-09-04T11:43:17.380Z,544.00
2022-09-04T11:48:18.672Z,544.00
2022-09-04T11:53:15.834Z,533.00
2022-09-04T11:58:14.136Z,554.00
2022-09-04T12:03:14.268Z,546.00
2022-09-04T12:08:13.602Z,541.00
2022-09-04T12:13:15.166Z,544.00
2022-09-04T12:18:15.190Z,577.00
2022-09-04T12:23:11.515Z,575.00
2022-09-04T12:28:10.859Z,608.00
2022-09-04T12:33:10.977Z,612.00
2022-09-04T12:38:09.282Z,587.00
2022-09-04T12:43:09.647Z,551.00
2022-09-04T12:48:07.752Z,544.00
2022-09-04T12:53:07.069Z,543.00
2022-09-04T12:58:06.406Z,545.00
2022-09-04T13:03:06.575Z,558.00
2022-09-04T13:08:04.718Z,535.00
2022-09-04T13:13:04.014Z,551.00
2022-09-04T13:18:03.312Z,585.00
2022-09-04T13:23:02.594Z,590.00
2022-09-04T13:28:02.900Z,549.00
2022-09-04T13:33:01.187Z,550.00
2022-09-04T13:38:00.465Z,538.00
2022-09-04T13:42:59.769Z,551.00
2022-09-04T13:48:15.979Z,558.00
2022-09-04T13:52:58.309Z,591.00
2022-09-04T13:57:57.661Z,563.00
2022-09-04T14:02:56.677Z,529.00
2022-09-04T14:07:55.914Z,551.00
2022-09-04T14:12:56.142Z,548.00
2022-09-04T14:17:56.499Z,564.00
2022-09-04T14:22:54.597Z,563.00
2022-09-04T14:27:52.913Z,541.00
2022-09-04T14:32:55.606Z,536.00
2022-09-04T14:37:53.296Z,537.00
2022-09-04T14:42:52.590Z,544.00
2022-09-04T14:47:49.881Z,549.00
2022-09-04T14:52:50.191Z,539.00
2022-09-04T14:57:48.503Z,542.00
2022-09-04T15:02:48.806Z,543.00
2022-09-04T15:07:49.140Z,543.00
2022-09-04T15:12:48.412Z,539.00
2022-09-04T15:17:47.220Z,541.00
2022-09-04T15:22:45.860Z,541.00
2022-09-04T15:27:44.185Z,546.00
2022-09-04T15:32:44.509Z,541.00
2022-09-04T15:37:42.839Z,547.00
2022-09-04T15:42:42.126Z,543.00
2022-09-04T15:47:41.432Z,537.00
2022-09-04T15:52:40.743Z,546.00
2022-09-04T15:57:40.045Z,546.00
2022-09-04T16:02:41.384Z,538.00
2022-09-04T16:07:39.713Z,543.00
2022-09-04T16:12:37.811Z,541.00
2022-09-04T16:17:38.142Z,541.00
2022-09-04T16:22:37.425Z,535.00
2022-09-04T16:27:35.723Z,539.00
2022-09-04T16:32:36.031Z,570.00
2022-09-04T16:37:34.300Z,621.00
2022-09-04T16:42:33.593Z,628.00
2022-09-04T16:47:32.889Z,612.00
2022-09-04T16:52:32.243Z,608.00
2022-09-04T16:57:32.600Z,599.00
2022-09-04T17:02:35.670Z,601.00
2022-09-04T17:07:30.013Z,598.00
2022-09-04T17:12:29.139Z,602.00
2022-09-04T17:17:31.471Z,589.00
2022-09-04T17:28:56.701Z,589.00
2022-09-04T17:29:11.490Z,571.00
2022-09-04T17:38:09.071Z,567.00
2022-09-04T17:40:55.089Z,573.00
2022-09-04T17:42:24.562Z,562.00
2022-09-04T17:47:24.696Z,561.00
2022-09-04T17:52:22.999Z,571.00
2022-09-04T17:57:22.455Z,572.00
2022-09-04T18:02:22.774Z,573.00
2022-09-04T18:07:57.775Z,580.00
2022-09-04T18:12:21.201Z,584.00
2022-09-04T18:17:19.498Z,568.00
2022-09-04T18:22:26.870Z,590.00
2022-09-04T18:27:18.072Z,579.00
2022-09-04T18:37:12.480Z,573.00
2022-09-04T18:37:44.478Z,619.00
2022-09-04T18:50:20.428Z,574.00
2022-09-04T18:50:51.557Z,582.00
2022-09-04T18:52:13.979Z,599.00
2022-09-04T18:57:13.223Z,587.00
2022-09-04T19:02:13.674Z,614.00
2022-09-04T19:07:11.691Z,624.00
2022-09-04T19:12:11.950Z,621.00
2022-09-04T19:17:10.794Z,620.00
2022-09-04T19:22:08.373Z,619.00
2022-09-04T19:27:21.966Z,616.00
2022-09-04T19:32:08.490Z,629.00
2022-09-04T19:37:24.706Z,623.00
2022-09-04T19:46:19.139Z,636.00
2022-09-04T19:47:05.664Z,626.00
2022-09-04T19:53:33.748Z,619.00
2022-09-04T19:57:31.685Z,613.00
2022-09-04T20:02:03.823Z,628.00
2022-09-04T20:07:03.396Z,628.00
2022-09-04T20:12:01.650Z,614.00
2022-09-04T20:17:02.119Z,632.00
2022-09-04T20:21:59.886Z,604.00
2022-09-04T20:26:59.212Z,642.00
2022-09-04T20:31:58.636Z,623.00
2022-09-04T20:36:58.779Z,631.00
2022-09-04T20:41:58.141Z,655.00
2022-09-04T20:52:44.449Z,641.00
2022-09-04T20:52:58.851Z,633.00
2022-09-04T21:00:44.039Z,627.00
2022-09-04T21:03:23.006Z,616.00
2022-09-04T21:06:53.097Z,695.00
2022-09-04T21:11:52.455Z,615.00
2022-09-04T21:16:52.639Z,640.00
2022-09-04T21:21:50.722Z,633.00
2022-09-04T21:26:51.043Z,700.00
2022-09-04T21:31:50.402Z,667.00
2022-09-04T21:36:48.530Z,651.00
2022-09-04T21:41:48.816Z,613.00
2022-09-04T21:46:47.201Z,594.00
2022-09-04T21:51:48.381Z,586.00
2022-09-04T22:02:25.257Z,600.00
2022-09-04T22:02:36.083Z,543.00
2022-09-04T22:09:19.321Z,624.00
2022-09-04T22:13:29.944Z,617.00
2022-09-04T22:16:43.293Z,596.00
2022-09-04T22:21:41.439Z,578.00
2022-09-04T22:26:41.758Z,577.00
2022-09-04T22:31:41.200Z,574.00
2022-09-04T22:36:40.374Z,576.00
2022-09-04T22:41:39.458Z,570.00
2022-09-04T22:46:37.791Z,574.00
2022-09-04T22:51:38.017Z,574.00
2022-09-04T22:56:36.109Z,586.00
2022-09-04T23:01:35.446Z,500.00
2022-09-04T23:09:24.911Z,607.00
2022-09-04T23:13:57.992Z,539.00
2022-09-04T23:16:33.194Z,612.00
2022-09-04T23:26:38.558Z,621.00
2022-09-04T23:26:58.514Z,643.00
2022-09-04T23:31:30.763Z,654.00
2022-09-04T23:36:33.597Z,597.00
2022-09-04T23:41:29.350Z,648.00
2022-09-04T23:46:28.517Z,652.00
2022-09-04T23:51:29.673Z,591.00
2022-09-04T23:56:27.848Z,659.00
